Time;durP1;ratioP1;P1;durP2;ratioP2;P2;SDS_P1;SDS_P2;PMS_P1;PMS_P2;Temp;Humidity;BMP_temperature;BMP_pressure;BME280_temperature;BME280_humidity;BME280_pressure;Samples;Min_cycle;Max_cycle;Signal;HPM_P1;HPM_P2
2023/09/01 03:53:34;;;;;;;3.75;2.00;;;;;;;15.11;100.00;100605.22;5225741;34;32886;-84
2023/09/01 03:56:37;;;;;;;3.03;2.40;;;;;;;15.16;100.00;100601.94;5235683;34;33099;-84
2023/09/01 03:59:41;;;;;;;2.92;2.40;;;;;;;15.27;100.00;100603.19;5230018;34;33683;-84
2023/09/01 04:02:44;;;;;;;2.22;1.77;;;;;;;15.28;100.00;100607.59;5233092;33;33317;-85
2023/09/01 04:05:47;;;;;;;4.12;2.40;;;;;;;15.27;100.00;100600.50;5262364;33;33787;-85
2023/09/01 04:08:50;;;;;;;2.33;2.05;;;;;;;15.29;100.00;100598.41;5217153;34;33711;-85
2023/09/01 04:11:54;;;;;;;3.08;2.20;;;;;;;15.34;100.00;100602.19;5214370;34;33349;-85
2023/09/01 04:14:57;;;;;;;2.83;2.55;;;;;;;15.38;100.00;100605.34;5240164;34;33268;-85
2023/09/01 04:18:00;;;;;;;2.45;2.25;;;;;;;15.43;100.00;100611.81;5213148;34;33259;-85
2023/09/01 04:21:03;;;;;;;2.62;2.42;;;;;;;15.47;100.00;100606.81;5212957;34;34775;-85
2023/09/01 04:24:06;;;;;;;2.78;2.22;;;;;;;15.52;100.00;100607.06;5212639;34;33395;-85
2023/09/01 04:27:09;;;;;;;2.80;2.60;;;;;;;15.62;100.00;100595.81;5236143;34;33771;-85
2023/09/01 04:30:13;;;;;;;3.33;2.37;;;;;;;15.59;100.00;100605.22;5224705;34;33564;-85
2023/09/01 04:33:16;;;;;;;4.12;2.15;;;;;;;15.61;100.00;100615.84;5236608;34;33298;-85
2023/09/01 04:36:19;;;;;;;4.00;2.08;;;;;;;15.59;100.00;100610.63;5224312;34;34034;-85
2023/09/01 04:39:28;;;;;;;2.53;2.28;;;;;;;15.67;100.00;100611.47;5224598;34;33506;-89
2023/09/01 04:42:32;;;;;;;2.17;1.98;;;;;;;15.72;100.00;100611.72;5236598;34;34499;-89
2023/09/01 04:45:35;;;;;;;3.33;2.50;;;;;;;15.81;100.00;100615.91;5212345;34;34051;-89
2023/09/01 04:48:38;;;;;;;3.92;2.35;;;;;;;15.89;100.00;100615.72;5212134;34;33094;-90
2023/09/01 04:51:41;;;;;;;6.82;2.62;;;;;;;15.82;100.00;100613.00;5223617;34;33122;-85
2023/09/01 04:54:44;;;;;;;3.97;2.33;;;;;;;15.82;100.00;100610.28;5229717;33;33062;-85
2023/09/01 04:57:48;;;;;;;6.28;2.85;;;;;;;15.86;100.00;100608.00;5260471;33;34158;-86
2023/09/01 05:00:51;;;;;;;3.08;2.53;;;;;;;15.90;100.00;100614.66;5253053;33;33581;-85
2023/09/01 05:03:54;;;;;;;4.45;3.28;;;;;;;15.92;100.00;100612.59;5253647;33;34862;-85
2023/09/01 05:06:57;;;;;;;2.70;2.50;;;;;;;15.92;100.00;100612.59;5234889;33;33709;-85
2023/09/01 05:10:01;;;;;;;4.57;2.85;;;;;;;15.95;100.00;100619.50;5261108;33;32495;-85
2023/09/01 05:13:04;;;;;;;3.35;2.87;;;;;;;16.05;100.00;100618.03;5250760;33;33382;-86
2023/09/01 05:16:07;;;;;;;6.82;2.72;;;;;;;16.19;100.00;100628.91;5268398;33;34843;-85
2023/09/01 05:19:10;;;;;;;4.47;2.40;;;;;;;16.20;100.00;100634.13;5273023;33;33134;-85
2023/09/01 05:22:16;;;;;;;3.87;2.42;;;;;;;16.35;100.00;100636.66;5275292;33;34959;-85
2023/09/01 05:25:19;;;;;;;2.97;2.62;;;;;;;16.50;100.00;100629.12;5259800;33;33019;-85
2023/09/01 05:28:22;;;;;;;3.92;2.92;;;;;;;16.60;100.00;100625.12;5238865;33;33483;-85
2023/09/01 05:31:25;;;;;;;3.70;2.42;;;;;;;16.66;100.00;100627.00;5237396;33;33234;-85
2023/09/01 05:34:28;;;;;;;5.78;3.37;;;;;;;16.78;100.00;100625.31;5253411;33;34253;-85
2023/09/01 05:37:31;;;;;;;4.43;2.70;;;;;;;16.85;100.00;100634.31;5239408;33;33016;-85
2023/09/01 05:40:34;;;;;;;8.43;3.30;;;;;;;16.93;100.00;100630.50;5224682;33;33321;-85
2023/09/01 05:43:37;;;;;;;5.10;3.22;;;;;;;17.10;100.00;100631.72;5239074;33;33796;-85
2023/09/01 05:46:40;;;;;;;4.97;2.95;;;;;;;17.30;100.00;100628.94;5253970;33;33275;-85
2023/09/01 05:49:44;;;;;;;4.12;2.80;;;;;;;17.53;100.00;100635.75;5232178;33;33232;-85
2023/09/01 05:52:46;;;;;;;4.90;3.22;;;;;;;17.65;100.00;100636.72;5245212;33;34440;-85
2023/09/01 05:55:49;;;;;;;4.35;2.80;;;;;;;17.90;100.00;100644.97;5263291;33;33466;-85
2023/09/01 05:58:52;;;;;;;3.45;2.75;;;;;;;18.13;100.00;100644.37;5260039;33;33511;-85
2023/09/01 06:01:55;;;;;;;5.32;2.60;;;;;;;18.25;100.00;100648.09;5257330;33;34597;-85
2023/09/01 06:04:58;;;;;;;4.05;2.90;;;;;;;18.22;100.00;100647.66;5254709;33;33789;-85
2023/09/01 06:08:00;;;;;;;4.37;2.53;;;;;;;18.21;100.00;100641.41;5230962;33;32946;-85
2023/09/01 06:11:05;;;;;;;3.47;2.45;;;;;;;18.22;100.00;100640.34;5214366;33;34537;-85
2023/09/01 06:14:08;;;;;;;5.25;3.00;;;;;;;18.09;100.00;100648.62;5238350;33;33273;-85
2023/09/01 06:17:11;;;;;;;4.03;2.70;;;;;;;18.09;100.00;100645.91;5236982;33;33512;-85
2023/09/01 06:20:14;;;;;;;3.03;2.62;;;;;;;18.24;100.00;100649.12;5237339;33;33420;-85
2023/09/01 06:23:22;;;;;;;7.03;2.90;;;;;;;18.22;100.00;100642.22;5256098;33;34685;-85
2023/09/01 06:26:25;;;;;;;5.18;2.45;;;;;;;18.26;100.00;100640.75;5240033;33;33319;-85
2023/09/01 06:29:28;;;;;;;4.12;2.42;;;;;;;18.20;100.00;100633.47;5247525;33;33455;-85
2023/09/01 06:32:31;;;;;;;3.85;2.97;;;;;;;18.28;100.00;100634.00;5244501;33;34922;-85
2023/09/01 06:35:34;;;;;;;7.85;3.75;;;;;;;18.48;100.00;100631.09;5256521;33;33316;-85
2023/09/01 06:38:37;;;;;;;5.62;3.00;;;;;;;18.59;100.00;100627.63;5252574;33;32976;-85
2023/09/01 06:41:40;;;;;;;4.62;2.83;;;;;;;18.86;100.00;100630.13;5245032;33;34026;-85
2023/09/01 06:44:43;;;;;;;5.43;3.22;;;;;;;19.16;100.00;100635.69;5267323;33;32908;-84
2023/09/01 06:47:46;;;;;;;7.07;3.20;;;;;;;19.26;100.00;100638.69;5257512;33;34247;-85
2023/09/01 06:50:49;;;;;;;4.53;3.47;;;;;;;19.47;100.00;100647.47;5255236;33;34095;-85
2023/09/01 06:53:52;;;;;;;4.80;3.60;;;;;;;19.56;100.00;100654.28;5243845;33;33620;-85
2023/09/01 06:56:55;;;;;;;7.72;3.67;;;;;;;19.67;97.85;100655.44;5251967;33;34575;-85
2023/09/01 06:59:58;;;;;;;6.90;3.50;;;;;;;19.84;96.87;100666.56;5241570;33;34218;-89
2023/09/01 07:03:00;;;;;;;5.40;3.65;;;;;;;19.89;96.15;100672.13;5241909;33;34059;-89
2023/09/01 07:06:04;;;;;;;4.12;3.72;;;;;;;20.00;95.85;100667.78;5230093;33;32889;-89
2023/09/01 07:09:07;;;;;;;6.72;3.37;;;;;;;20.06;96.17;100664.13;5224726;34;34031;-89
2023/09/01 07:12:10;;;;;;;6.90;3.78;;;;;;;20.17;92.61;100672.34;5213604;34;33242;-86
2023/09/01 07:15:13;;;;;;;6.15;3.47;;;;;;;20.30;93.86;100671.31;5224708;33;33955;-86
2023/09/01 07:18:16;;;;;;;3.85;3.00;;;;;;;20.49;93.64;100679.41;5226308;33;33432;-85
2023/09/01 07:21:21;;;;;;;8.13;3.53;;;;;;;20.76;89.03;100674.34;5254508;33;33395;-85
2023/09/01 07:24:24;;;;;;;4.68;3.03;;;;;;;20.83;89.29;100670.44;5242537;33;33646;-85
2023/09/01 07:27:27;;;;;;;5.37;3.25;;;;;;;20.99;89.39;100674.34;5222550;33;33273;-86
2023/09/01 07:30:34;;;;;;;4.72;3.10;;;;;;;21.26;87.79;100674.69;5227469;33;33327;-86
2023/09/01 07:33:37;;;;;;;5.97;3.15;;;;;;;21.46;85.62;100679.75;5249669;33;33316;-86
2023/09/01 07:36:40;;;;;;;5.75;3.10;;;;;;;21.57;84.43;100678.06;5212143;33;33143;-85
2023/09/01 07:39:42;;;;;;;4.82;3.30;;;;;;;21.64;83.80;100681.47;5244153;33;33819;-85
2023/09/01 07:42:45;;;;;;;5.82;2.80;;;;;;;21.71;82.82;100679.44;5224676;34;33372;-86
2023/09/01 07:45:48;;;;;;;3.15;2.58;;;;;;;22.02;81.54;100682.75;5236850;33;34030;-85
2023/09/01 07:48:51;;;;;;;6.85;3.70;;;;;;;22.13;78.48;100672.81;5217006;33;33486;-85
2023/09/01 07:51:54;;;;;;;3.90;2.70;;;;;;;22.05;78.59;100673.22;5227478;33;33197;-85
2023/09/01 07:54:57;;;;;;;6.53;2.85;;;;;;;22.08;78.87;100672.72;5228954;33;33142;-85
2023/09/01 07:58:00;;;;;;;3.30;2.42;;;;;;;22.15;78.36;100676.16;5241349;33;33661;-85
2023/09/01 08:01:03;;;;;;;4.55;2.85;;;;;;;22.45;78.04;100678.59;5251290;33;33353;-85
2023/09/01 08:04:07;;;;;;;4.75;2.87;;;;;;;22.82;76.23;100673.44;5238676;33;33386;-85
2023/09/01 08:07:10;;;;;;;4.95;2.92;;;;;;;22.98;76.50;100674.50;5214977;33;33240;-85
2023/09/01 08:10:13;;;;;;;4.00;3.10;;;;;;;22.92;75.97;100678.22;5229496;33;34995;-85
2023/09/01 08:13:16;;;;;;;4.75;2.85;;;;;;;22.63;75.57;100691.22;5243687;33;33419;-85
2023/09/01 08:16:19;;;;;;;3.83;2.70;;;;;;;22.73;78.31;100688.66;5213010;33;33732;-86
2023/09/01 08:19:22;;;;;;;8.38;2.90;;;;;;;23.22;79.47;100680.59;5239635;33;34131;-85
2023/09/01 08:22:24;;;;;;;4.40;2.75;;;;;;;23.71;73.17;100688.94;5215453;33;33098;-85
2023/09/01 08:25:27;;;;;;;5.53;2.80;;;;;;;24.11;71.07;100684.13;5240838;33;33651;-86
2023/09/01 08:28:33;;;;;;;7.30;3.10;;;;;;;24.33;69.33;100689.53;5252228;33;32315;-85
2023/09/01 08:31:36;;;;;;;5.43;2.60;;;;;;;24.27;67.92;100693.34;5238817;33;34000;-85
2023/09/01 08:34:39;;;;;;;3.58;2.05;;;;;;;24.16;70.49;100685.00;5240631;33;33438;-85
2023/09/01 08:37:42;;;;;;;3.70;2.30;;;;;;;24.02;68.98;100685.69;5229640;33;33451;-85
2023/09/01 08:40:45;;;;;;;1.98;1.87;;;;;;;23.64;71.37;100677.28;5255285;33;34154;-85
2023/09/01 08:43:50;;;;;;;3.33;2.00;;;;;;;24.02;71.36;100677.44;5228695;34;33151;-85
2023/09/01 08:46:55;;;;;;;3.15;2.00;;;;;;;24.18;69.92;100668.22;5239584;33;33254;-85
2023/09/01 08:49:59;;;;;;;2.70;2.40;;;;;;;23.94;70.46;100681.47;5229043;34;34421;-84
2023/09/01 08:53:03;;;;;;;2.58;2.00;;;;;;;24.02;69.82;100680.19;5237402;33;32900;-84
2023/09/01 08:56:06;;;;;;;3.97;2.20;;;;;;;23.82;69.31;100686.31;5239620;33;34240;-85
2023/09/01 08:59:09;;;;;;;4.05;2.17;;;;;;;23.54;71.45;100677.16;5233409;33;32854;-84
2023/09/01 09:02:11;;;;;;;4.68;2.50;;;;;;;23.59;71.72;100690.12;5249138;33;33365;-85
2023/09/01 09:05:15;;;;;;;5.03;2.50;;;;;;;23.52;72.77;100674.66;5219668;33;34527;-84
2023/09/01 09:08:20;;;;;;;4.15;2.53;;;;;;;23.59;72.82;100677.22;5242364;33;33020;-85
2023/09/01 09:11:23;;;;;;;2.90;2.33;;;;;;;23.61;72.58;100676.97;5244680;33;34176;-84
2023/09/01 09:14:30;;;;;;;2.78;2.40;;;;;;;23.84;70.84;100673.97;5223395;33;33798;-84
2023/09/01 09:17:46;;;;;;;4.28;2.33;;;;;;;23.48;72.86;100670.75;5226634;33;33954;-89
2023/09/01 09:20:49;;;;;;;2.80;2.35;;;;;;;23.67;72.67;100670.44;5250961;33;33386;-84
2023/09/01 09:23:54;;;;;;;4.20;2.20;;;;;;;23.99;71.63;100670.53;5221215;33;33435;-84
2023/09/01 09:27:18;;;;;;;3.53;1.80;;;;;;;24.27;70.79;100669.41;5233958;33;33750;-84
2023/09/01 09:30:21;;;;;;;2.67;2.08;;;;;;;24.23;72.70;100670.22;5247837;33;31642;-85
2023/09/01 09:33:29;;;;;;;1.75;1.50;;;;;;;24.61;71.41;100663.66;5239352;33;32113;-85
2023/09/01 09:36:36;;;;;;;4.82;1.95;;;;;;;24.76;69.11;100671.19;5247628;33;34403;-84
2023/09/01 09:39:41;;;;;;;2.25;2.05;;;;;;;24.84;66.94;100674.28;5241670;33;33304;-85
2023/09/01 09:42:46;;;;;;;1.80;1.70;;;;;;;24.57;67.54;100671.63;5227112;33;34127;-84
2023/09/01 09:45:51;;;;;;;3.65;1.90;;;;;;;24.59;68.08;100683.19;5226195;34;33639;-85
2023/09/01 09:48:56;;;;;;;3.40;2.12;;;;;;;24.87;68.01;100670.19;5240208;33;34363;-84
2023/09/01 09:52:00;;;;;;;2.05;1.85;;;;;;;24.89;66.22;100667.97;5246363;33;33441;-84
2023/09/01 09:55:18;;;;;;;2.35;1.95;;;;;;;25.08;64.86;100668.38;5266997;33;33118;-84
2023/09/01 09:58:36;;;;;;;5.05;2.12;;;;;;;25.67;65.31;100654.28;5251929;33;33647;-84
2023/09/01 10:01:43;;;;;;;2.78;2.00;;;;;;;25.63;63.80;100652.38;5252971;33;33221;-85
2023/09/01 10:04:47;;;;;;;2.92;2.30;;;;;;;25.60;63.68;100655.69;5248440;33;32976;-85
2023/09/01 10:07:51;;;;;;;2.47;1.90;;;;;;;25.94;64.31;100648.59;5236690;33;33939;-84
2023/09/01 10:10:57;;;;;;;3.05;2.00;;;;;;;25.99;61.96;100648.59;5247970;33;33298;-84
2023/09/01 10:14:00;;;;;;;3.95;2.28;;;;;;;25.98;62.46;100652.47;5230896;33;34488;-84
2023/09/01 10:17:04;;;;;;;3.22;2.12;;;;;;;26.11;60.48;100653.84;5240920;33;33467;-84
2023/09/01 10:20:08;;;;;;;3.78;2.30;;;;;;;26.42;60.46;100653.87;5238045;33;34160;-84
2023/09/01 10:23:12;;;;;;;2.08;1.98;;;;;;;27.05;58.35;100643.28;5242064;33;33661;-84
2023/09/01 10:26:29;;;;;;;2.15;1.95;;;;;;;27.10;55.83;100646.03;5238966;33;33342;-89
2023/09/01 10:29:34;;;;;;;2.20;2.00;;;;;;;27.31;55.89;100646.81;5251755;33;33468;-85
2023/09/01 10:32:38;;;;;;;2.78;2.28;;;;;;;27.14;54.56;100646.28;5239882;33;33130;-85
2023/09/01 10:35:50;;;;;;;3.00;2.00;;;;;;;26.92;56.05;100647.47;5237097;33;34200;-85
2023/09/01 10:38:53;;;;;;;3.92;2.17;;;;;;;27.26;53.03;100646.84;5233965;33;33284;-85
2023/09/01 10:42:02;;;;;;;2.53;2.05;;;;;;;27.42;53.50;100636.53;5224800;34;32938;-85
2023/09/01 10:45:06;;;;;;;2.30;1.92;;;;;;;27.66;51.24;100644.16;5213949;34;33384;-85
2023/09/01 10:48:11;;;;;;;4.28;2.10;;;;;;;27.63;52.22;100639.19;5252304;33;33121;-85
2023/09/01 10:51:20;;;;;;;6.00;1.85;;;;;;;27.23;52.97;100629.97;5242383;33;33293;-84
2023/09/01 10:54:23;;;;;;;5.20;2.03;;;;;;;27.22;52.66;100640.22;5246163;33;33266;-85
2023/09/01 10:57:51;;;;;;;5.32;2.17;;;;;;;26.57;55.75;100642.03;5240334;33;33502;-85
2023/09/01 11:00:57;;;;;;;3.20;2.35;;;;;;;26.37;55.43;100640.87;5242408;33;34731;-85
2023/09/01 11:04:30;;;;;;;2.65;2.10;;;;;;;26.18;55.85;100629.59;5232922;33;34448;-85
2023/09/01 11:08:09;;;;;;;2.40;2.20;;;;;;;26.25;56.66;100632.06;5246088;33;34289;-85
2023/09/01 11:11:12;;;;;;;3.37;2.50;;;;;;;26.22;57.95;100629.84;5238629;33;33032;-90
2023/09/01 11:14:20;;;;;;;3.35;2.30;;;;;;;26.79;55.63;100622.34;5214363;33;33574;-90
2023/09/01 11:17:32;;;;;;;3.05;2.22;;;;;;;27.54;52.85;100625.97;5238898;34;33294;-85
2023/09/01 11:20:36;;;;;;;3.00;2.47;;;;;;;27.81;51.84;100616.41;5217427;33;34225;-86
2023/09/01 11:23:39;;;;;;;2.17;2.00;;;;;;;28.50;50.16;100613.69;5231095;33;33254;-86
2023/09/01 11:26:45;;;;;;;2.35;1.90;;;;;;;28.97;48.06;100623.97;5243407;33;33899;-85
2023/09/01 11:29:52;;;;;;;2.35;1.70;;;;;;;28.35;46.01;100614.62;5216286;34;32965;-85
2023/09/01 11:32:56;;;;;;;3.03;1.42;;;;;;;27.64;46.12;100614.00;5241227;33;33335;-86
2023/09/01 11:36:12;;;;;;;1.55;1.40;;;;;;;27.19;47.81;100618.66;5248459;33;33136;-85
2023/09/01 11:39:16;;;;;;;1.70;1.60;;;;;;;27.50;47.11;100624.06;5243394;33;33903;-85
2023/09/01 11:42:19;;;;;;;4.60;1.90;;;;;;;27.09;49.46;100624.22;5231482;33;34289;-84
2023/09/01 11:45:25;;;;;;;1.73;1.62;;;;;;;27.21;49.75;100619.22;5232640;33;33440;-85
2023/09/01 11:48:28;;;;;;;6.65;1.98;;;;;;;27.05;50.03;100615.63;5241952;33;32253;-84
2023/09/01 11:51:38;;;;;;;2.65;1.75;;;;;;;27.04;49.70;100613.16;5227623;33;34512;-85
2023/09/01 11:54:41;;;;;;;2.45;1.90;;;;;;;27.47;49.43;100610.81;5243873;33;33146;-84
2023/09/01 11:57:53;;;;;;;2.00;1.67;;;;;;;27.93;46.96;100608.56;5245720;33;33297;-84
2023/09/01 12:00:56;;;;;;;2.22;1.40;;;;;;;28.02;46.07;100601.34;5240591;33;33440;-84
2023/09/01 12:04:05;;;;;;;2.62;1.90;;;;;;;27.87;46.19;100597.84;5255570;33;33581;-85
2023/09/01 12:07:08;;;;;;;2.85;1.37;;;;;;;28.52;45.90;100597.56;5241485;33;34109;-85
2023/09/01 12:10:24;;;;;;;1.30;1.15;;;;;;;29.53;42.42;100594.72;5228824;33;33379;-85
2023/09/01 12:13:27;;;;;;;1.73;1.62;;;;;;;30.19;41.72;100599.25;5234649;33;33648;-85
2023/09/01 12:16:30;;;;;;;1.70;1.58;;;;;;;31.04;40.79;100599.94;5233821;33;33241;-85
2023/09/01 12:19:46;;;;;;;1.95;1.65;;;;;;;31.36;37.10;100590.66;5235052;33;33079;-84
2023/09/01 12:22:49;;;;;;;2.15;1.37;;;;;;;31.52;35.27;100593.91;5247119;33;33707;-89
2023/09/01 12:25:52;;;;;;;1.15;1.15;;;;;;;31.72;35.01;100589.00;5225831;33;33370;-88
2023/09/01 12:28:55;;;;;;;1.58;1.42;;;;;;;32.55;33.96;100585.84;5237494;33;33617;-88
2023/09/01 12:31:58;;;;;;;2.85;1.77;;;;;;;32.73;33.40;100582.81;5250403;33;33556;-89
2023/09/01 12:35:01;;;;;;;1.52;1.42;;;;;;;33.09;33.25;100586.56;5240238;33;34673;-85
2023/09/01 12:38:04;;;;;;;1.33;1.23;;;;;;;33.59;32.52;100584.19;5245673;33;34160;-84
2023/09/01 12:41:08;;;;;;;1.48;1.37;;;;;;;33.91;31.05;100579.25;5240150;33;32910;-85
2023/09/01 12:44:12;;;;;;;2.35;1.55;;;;;;;33.99;29.71;100583.19;5224911;33;34327;-85
2023/09/01 12:47:15;;;;;;;0.95;0.95;;;;;;;35.26;28.15;100572.22;5223845;34;33647;-85
2023/09/01 12:50:17;;;;;;;1.90;1.08;;;;;;;36.27;26.97;100565.59;5234577;33;33137;-85
2023/09/01 12:53:21;;;;;;;1.48;1.37;;;;;;;36.57;26.58;100571.88;5240005;33;33369;-85
2023/09/01 12:56:24;;;;;;;2.35;1.25;;;;;;;36.29;26.57;100574.50;5237846;33;34254;-85
2023/09/01 12:59:28;;;;;;;1.73;1.30;;;;;;;34.95;28.97;100567.75;5242989;33;33944;-83
2023/09/01 13:02:31;;;;;;;1.37;1.27;;;;;;;33.41;30.21;100566.59;5241427;33;34154;-84
2023/09/01 13:05:34;;;;;;;1.40;1.30;;;;;;;32.15;32.82;100563.44;5253382;33;33592;-85
2023/09/01 13:08:37;;;;;;;2.95;1.50;;;;;;;31.16;34.95;100571.59;5242842;33;34500;-85
2023/09/01 13:11:40;;;;;;;1.80;1.70;;;;;;;30.71;35.50;100568.59;5255659;33;34479;-85
2023/09/01 13:14:43;;;;;;;2.03;1.40;;;;;;;30.54;34.17;100563.66;5241202;33;34184;-85
2023/09/01 13:17:47;;;;;;;3.50;1.58;;;;;;;30.48;35.97;100562.09;5242432;33;33551;-85
2023/09/01 13:20:50;;;;;;;2.67;1.20;;;;;;;30.83;34.60;100562.53;5242644;33;33278;-85
2023/09/01 13:23:53;;;;;;;2.25;1.30;;;;;;;30.53;35.33;100555.63;5241971;33;33408;-83
2023/09/01 13:26:55;;;;;;;2.62;1.33;;;;;;;32.32;32.13;100559.94;5226750;33;33372;-84
2023/09/01 13:29:59;;;;;;;1.50;1.20;;;;;;;35.13;27.32;100553.69;5225461;34;33431;-83
2023/09/01 13:33:01;;;;;;;1.20;1.00;;;;;;;35.49;25.91;100553.13;5243088;33;33753;-85
2023/09/01 13:36:04;;;;;;;1.50;1.40;;;;;;;35.72;26.40;100556.41;5249302;33;34348;-85
2023/09/01 13:39:07;;;;;;;2.55;1.02;;;;;;;37.08;25.03;100555.53;5240399;33;32936;-85
2023/09/01 13:42:10;;;;;;;2.00;1.30;;;;;;;38.44;23.19;100547.44;5242571;33;33134;-83
2023/09/01 13:45:13;;;;;;;1.20;0.93;;;;;;;38.94;23.47;100541.03;5240181;33;33066;-83
2023/09/01 13:48:16;;;;;;;1.12;1.02;;;;;;;36.99;24.76;100535.97;5228655;33;33390;-85
2023/09/01 13:51:21;;;;;;;1.62;1.52;;;;;;;35.28;26.30;100541.09;5241710;33;34084;-83
2023/09/01 13:54:24;;;;;;;1.27;1.17;;;;;;;34.54;27.42;100535.72;5240265;33;33805;-83
2023/09/01 13:57:27;;;;;;;2.37;1.20;;;;;;;35.68;26.86;100524.63;5241468;33;33553;-83
2023/09/01 14:00:30;;;;;;;2.12;1.48;;;;;;;36.45;25.24;100530.59;5219326;33;34075;-83
2023/09/01 14:03:33;;;;;;;1.27;1.17;;;;;;;35.07;26.71;100535.47;5242370;33;33618;-82
2023/09/01 14:06:36;;;;;;;3.12;1.30;;;;;;;33.02;28.99;100541.56;5217217;34;33594;-83
2023/09/01 14:09:39;;;;;;;1.65;1.20;;;;;;;32.20;30.26;100539.06;5228783;34;33422;-83
2023/09/01 14:12:41;;;;;;;1.60;1.50;;;;;;;31.04;31.85;100537.94;5227045;33;33514;-84
2023/09/01 14:15:48;;;;;;;1.30;1.20;;;;;;;30.94;32.48;100544.53;5229944;33;33230;-84
2023/09/01 14:18:51;;;;;;;1.25;1.25;;;;;;;31.07;32.88;100534.53;5237290;34;33303;-83
2023/09/01 14:21:54;;;;;;;3.60;1.50;;;;;;;30.16;33.34;100535.16;5225080;34;33075;-83
2023/09/01 14:24:57;;;;;;;1.60;1.50;;;;;;;29.66;35.12;100534.88;5237354;34;33868;-83
2023/09/01 14:28:00;;;;;;;2.97;1.55;;;;;;;29.69;34.99;100537.06;5224931;34;33127;-84
2023/09/01 14:31:03;;;;;;;1.80;1.55;;;;;;;29.11;36.34;100539.00;5227869;34;33645;-85
2023/09/01 14:34:06;;;;;;;1.98;1.42;;;;;;;28.73;37.15;100546.38;5225084;34;33285;-85
2023/09/01 14:37:09;;;;;;;1.77;1.48;;;;;;;28.62;37.06;100539.31;5237630;33;33747;-84
2023/09/01 14:40:12;;;;;;;1.95;1.20;;;;;;;28.68;34.55;100538.94;5236436;34;33498;-85
2023/09/01 14:43:15;;;;;;;1.52;1.42;;;;;;;28.54;35.30;100543.53;5225368;34;34186;-84
2023/09/01 14:46:19;;;;;;;1.70;1.20;;;;;;;28.52;34.41;100537.47;5226160;34;33547;-89
2023/09/01 14:49:23;;;;;;;2.35;1.17;;;;;;;29.01;34.11;100528.00;5237145;33;33223;-89
2023/09/01 14:52:26;;;;;;;3.95;1.20;;;;;;;29.06;34.29;100527.97;5237703;34;33213;-85
2023/09/01 14:55:30;;;;;;;1.67;1.40;;;;;;;28.51;34.12;100530.28;5237166;34;33462;-85
2023/09/01 14:58:34;;;;;;;1.40;1.30;;;;;;;28.03;36.67;100527.41;5224725;34;32853;-85
2023/09/01 15:01:37;;;;;;;1.85;1.50;;;;;;;27.76;35.92;100528.72;5233009;33;33417;-85
2023/09/01 15:04:40;;;;;;;1.87;1.30;;;;;;;27.64;36.75;100519.94;5226001;33;34145;-85
2023/09/01 15:07:43;;;;;;;1.58;1.33;;;;;;;27.51;36.20;100521.44;5241828;33;33704;-85
2023/09/01 15:10:46;;;;;;;1.27;1.17;;;;;;;27.41;36.61;100521.53;5230655;33;33319;-85
2023/09/01 15:13:48;;;;;;;1.50;1.40;;;;;;;27.56;36.36;100517.81;5231702;33;33454;-84
2023/09/01 15:16:53;;;;;;;2.40;1.50;;;;;;;27.57;37.08;100522.22;5251806;33;235778;-84
2023/09/01 15:19:56;;;;;;;2.70;1.58;;;;;;;27.61;36.59;100515.00;5242206;33;33056;-84
2023/09/01 15:22:59;;;;;;;1.20;1.10;;;;;;;27.48;36.84;100507.38;5242374;33;33716;-84
2023/09/01 15:26:02;;;;;;;1.80;1.70;;;;;;;27.18;38.02;100508.41;5230650;33;34058;-84
2023/09/01 15:29:05;;;;;;;2.15;1.17;;;;;;;26.92;38.76;100503.78;5255121;33;34072;-84
2023/09/01 15:32:08;;;;;;;1.77;1.45;;;;;;;26.86;39.03;100515.97;5254613;33;33333;-84
2023/09/01 15:35:11;;;;;;;1.95;1.83;;;;;;;26.72;39.33;100508.59;5241967;33;33245;-83
2023/09/01 15:38:28;;;;;;;1.67;1.58;;;;;;;26.66;40.19;100511.34;5232347;33;33354;-84
2023/09/01 15:41:31;;;;;;;1.50;1.40;;;;;;;26.50;40.30;100519.97;5254383;33;34370;-84
2023/09/01 15:44:34;;;;;;;2.33;1.70;;;;;;;26.41;40.59;100511.41;5230386;33;33477;-84
2023/09/01 15:47:37;;;;;;;2.42;1.60;;;;;;;26.31;40.70;100509.50;5236579;33;33785;-84
2023/09/01 15:50:43;;;;;;;1.55;1.45;;;;;;;26.21;40.86;100512.31;5256200;33;33514;-84
2023/09/01 15:53:48;;;;;;;2.25;2.08;;;;;;;26.21;41.61;100507.59;5251735;33;34478;-84
2023/09/01 15:56:51;;;;;;;1.62;1.52;;;;;;;26.09;41.95;100507.06;5230438;33;34076;-83
